Time;durP1;ratioP1;P1;durP2;ratioP2;P2;SDS_P1;SDS_P2;PMS_P1;PMS_P2;Temp;Humidity;BMP_temperature;BMP_pressure;BME280_temperature;BME280_humidity;BME280_pressure;Samples;Min_cycle;Max_cycle;Signal;HPM_P1;HPM_P2
2021/05/13 00:01:21;;;;;;;3.10;2.87;;;13.80;99.90;;;;;;5065948;28;20225;-59
2021/05/13 00:03:48;;;;;;;4.33;2.50;;;13.70;99.90;;;;;;5074427;28;20636;-57
2021/05/13 00:06:14;;;;;;;4.03;2.73;;;13.70;99.90;;;;;;5074386;28;20449;-58
2021/05/13 00:08:40;;;;;;;3.60;2.20;;;13.70;99.90;;;;;;5073455;28;20400;-59
2021/05/13 00:11:07;;;;;;;5.40;2.50;;;13.80;99.90;;;;;;5055549;28;20199;-59
2021/05/13 00:13:35;;;;;;;5.10;2.83;;;13.70;99.90;;;;;;5073852;28;20190;-59
2021/05/13 00:16:01;;;;;;;6.10;3.20;;;13.70;99.90;;;;;;5073652;28;20432;-58
2021/05/13 00:18:28;;;;;;;2.87;2.20;;;13.70;99.90;;;;;;5073807;28;20402;-57
2021/05/13 00:20:54;;;;;;;4.80;2.80;;;13.60;99.90;;;;;;5073668;28;20440;-59
2021/05/13 00:23:20;;;;;;;5.90;3.10;;;13.60;99.90;;;;;;5073696;28;20447;-60
2021/05/13 00:25:50;;;;;;;6.40;2.63;;;13.60;99.90;;;;;;5073926;28;20772;-59
2021/05/13 00:28:18;;;;;;;3.17;2.87;;;13.60;99.90;;;;;;5074001;28;20423;-59
2021/05/13 00:30:44;;;;;;;4.23;2.63;;;13.60;99.90;;;;;;5059415;28;20785;-59
2021/05/13 00:33:10;;;;;;;2.90;2.60;;;13.50;99.90;;;;;;5033708;28;20459;-60
2021/05/13 00:35:36;;;;;;;4.00;2.90;;;13.50;99.90;;;;;;5033752;28;20167;-58
2021/05/13 00:38:02;;;;;;;6.90;2.87;;;13.60;99.90;;;;;;5034306;28;20459;-60
2021/05/13 00:40:27;;;;;;;5.53;3.07;;;13.60;99.90;;;;;;5033499;28;20263;-59
2021/05/13 00:42:53;;;;;;;3.20;2.70;;;13.70;99.90;;;;;;5033770;28;20417;-59
2021/05/13 00:45:20;;;;;;;4.10;2.50;;;13.60;99.90;;;;;;5033892;28;20176;-60
2021/05/13 00:48:14;;;;;;;2.83;2.30;;;13.60;99.90;;;;;;5033251;28;20168;-59
2021/05/13 00:50:34;;;;;;;4.07;2.43;;;13.50;99.90;;;;;;5033096;28;20453;-60
2021/05/13 00:53:08;;;;;;;6.23;2.40;;;13.40;99.90;;;;;;5033424;28;20504;-60
2021/05/13 00:55:34;;;;;;;2.53;2.33;;;13.40;99.90;;;;;;5033210;28;20765;-60
2021/05/13 00:58:00;;;;;;;3.47;2.60;;;13.40;99.90;;;;;;5033683;28;20476;-60
2021/05/13 01:02:54;;;;;;;5.07;3.10;;;13.40;99.90;;;;;;5012247;28;20200;-61
2021/05/13 01:05:20;;;;;;;3.30;2.57;;;13.30;99.90;;;;;;5013407;28;20445;-60
2021/05/13 01:07:45;;;;;;;4.30;2.40;;;13.40;99.90;;;;;;5013373;28;20387;-60
2021/05/13 01:10:11;;;;;;;4.87;2.90;;;13.40;99.90;;;;;;5013198;28;20203;-60
2021/05/13 01:12:41;;;;;;;4.33;3.00;;;13.30;99.90;;;;;;5013839;28;20231;-58
2021/05/13 01:15:09;;;;;;;4.70;2.90;;;13.30;99.90;;;;;;5013351;28;20176;-61
2021/05/13 01:17:53;;;;;;;4.33;2.40;;;13.30;99.90;;;;;;5013295;28;20408;-60
2021/05/13 01:20:19;;;;;;;2.70;2.50;;;13.30;99.90;;;;;;5013974;28;20945;-60
2021/05/13 01:22:46;;;;;;;5.70;2.97;;;13.30;99.90;;;;;;5017568;28;20493;-61
2021/05/13 01:25:12;;;;;;;5.10;3.30;;;13.20;99.90;;;;;;5017814;28;20665;-60
2021/05/13 01:27:38;;;;;;;5.60;3.13;;;13.20;99.90;;;;;;5017513;28;20493;-60
2021/05/13 01:30:04;;;;;;;3.40;2.57;;;13.10;99.90;;;;;;5017680;28;20404;-60
2021/05/13 01:32:30;;;;;;;4.43;2.80;;;13.10;99.90;;;;;;5016793;28;20288;-60
2021/05/13 01:34:55;;;;;;;4.23;2.93;;;13.20;99.90;;;;;;5017146;28;21050;-60
2021/05/13 01:37:21;;;;;;;3.67;3.30;;;13.20;99.90;;;;;;5017032;28;20179;-60
2021/05/13 01:39:47;;;;;;;7.07;3.37;;;13.30;99.90;;;;;;5017348;28;20160;-59
2021/05/13 01:42:14;;;;;;;4.10;2.77;;;13.20;99.90;;;;;;5017156;28;20738;-60
2021/05/13 01:44:41;;;;;;;4.83;3.70;;;13.30;99.90;;;;;;5017068;28;20659;-59
2021/05/13 01:47:06;;;;;;;4.57;4.13;;;13.20;99.90;;;;;;5016652;28;20413;-59
2021/05/13 01:49:33;;;;;;;4.50;4.10;;;13.20;99.90;;;;;;5016899;28;20412;-60
2021/05/13 01:52:00;;;;;;;3.93;3.63;;;13.30;99.90;;;;;;5016978;28;20231;-59
2021/05/13 01:54:27;;;;;;;5.67;4.43;;;13.30;99.90;;;;;;5016257;28;20424;-59
2021/05/13 01:57:00;;;;;;;5.20;3.97;;;13.30;99.90;;;;;;5007269;28;20466;-60
2021/05/13 01:59:25;;;;;;;4.27;3.63;;;13.30;99.90;;;;;;4997403;28;20393;-59
2021/05/13 02:01:52;;;;;;;6.27;3.80;;;13.20;99.90;;;;;;5012320;28;20866;-60
2021/05/13 02:04:17;;;;;;;3.67;3.37;;;13.10;99.90;;;;;;5016522;28;20207;-60
2021/05/13 02:06:43;;;;;;;6.50;3.90;;;13.10;99.90;;;;;;5016524;28;20449;-60
2021/05/13 02:09:08;;;;;;;4.20;3.80;;;13.10;99.90;;;;;;5016453;28;20168;-60
2021/05/13 02:11:34;;;;;;;5.45;3.80;;;13.00;99.90;;;;;;5016111;28;20195;-60
2021/05/13 02:13:59;;;;;;;4.93;3.63;;;12.90;99.90;;;;;;5016670;28;20601;-60
2021/05/13 02:16:25;;;;;;;4.20;3.40;;;12.80;99.90;;;;;;5016330;28;20261;-59
2021/05/13 02:18:50;;;;;;;6.10;4.47;;;12.80;99.90;;;;;;5016268;28;20243;-60
2021/05/13 02:21:16;;;;;;;5.10;4.60;;;12.70;99.90;;;;;;5016219;28;20185;-60
2021/05/13 02:23:43;;;;;;;3.77;3.47;;;12.70;99.90;;;;;;5016512;28;20183;-60
2021/05/13 02:26:08;;;;;;;4.27;3.80;;;12.80;99.90;;;;;;5016240;28;20260;-60
2021/05/13 02:28:34;;;;;;;3.87;3.47;;;12.90;99.90;;;;;;5016355;28;20847;-60
2021/05/13 02:30:59;;;;;;;9.40;4.30;;;12.90;99.90;;;;;;5018389;28;20811;-60
2021/05/13 02:33:25;;;;;;;4.40;3.63;;;12.90;99.90;;;;;;5034450;28;20194;-60
2021/05/13 02:35:51;;;;;;;3.50;3.20;;;12.90;99.90;;;;;;5035764;28;20178;-60
2021/05/13 02:38:16;;;;;;;3.90;3.60;;;12.80;99.90;;;;;;5035971;28;20570;-60
2021/05/13 02:40:42;;;;;;;4.20;3.60;;;12.80;99.90;;;;;;5035752;28;20562;-59
2021/05/13 02:43:07;;;;;;;6.43;3.90;;;12.80;99.90;;;;;;5035703;28;20167;-60
2021/05/13 02:45:33;;;;;;;4.17;3.40;;;12.80;99.90;;;;;;5035897;28;20175;-60
2021/05/13 02:47:58;;;;;;;5.17;3.77;;;12.80;99.90;;;;;;5035261;28;20178;-59
2021/05/13 02:50:25;;;;;;;3.50;3.07;;;12.80;99.90;;;;;;5035432;28;20164;-60
2021/05/13 02:52:50;;;;;;;7.20;4.10;;;12.90;99.90;;;;;;5035646;28;20227;-61
2021/05/13 02:55:16;;;;;;;6.53;3.40;;;12.90;99.90;;;;;;5035380;28;20816;-60
2021/05/13 02:57:42;;;;;;;4.30;3.20;;;12.90;99.90;;;;;;5035824;28;20172;-61
2021/05/13 03:02:49;;;;;;;3.20;2.70;;;12.90;99.90;;;;;;5016178;28;20422;-60
2021/05/13 03:05:16;;;;;;;4.80;3.20;;;12.90;99.90;;;;;;5017318;28;20829;-60
2021/05/13 03:07:46;;;;;;;4.97;3.20;;;12.90;99.90;;;;;;5017322;28;20215;-59
2021/05/13 03:10:17;;;;;;;5.47;3.57;;;12.90;99.90;;;;;;5015876;28;20906;-60
2021/05/13 03:12:44;;;;;;;4.73;3.70;;;12.90;99.90;;;;;;5015813;28;20921;-60
2021/05/13 03:15:10;;;;;;;3.63;3.33;;;12.90;99.90;;;;;;5015460;28;20492;-60
2021/05/13 03:17:35;;;;;;;4.30;3.37;;;13.00;99.90;;;;;;5015235;28;20681;-61
2021/05/13 03:20:01;;;;;;;5.93;3.50;;;13.10;99.90;;;;;;5015093;28;20482;-60
2021/05/13 03:22:27;;;;;;;8.13;3.90;;;13.00;99.90;;;;;;5015326;28;20284;-58
2021/05/13 03:24:59;;;;;;;4.13;3.73;;;13.10;99.90;;;;;;5015134;28;20176;-60
2021/05/13 03:29:51;;;;;;;3.60;3.30;;;13.10;99.90;;;;;;5015358;28;20406;-60
2021/05/13 03:32:17;;;;;;;5.50;4.07;;;13.10;99.90;;;;;;5014603;28;20207;-60
2021/05/13 03:34:42;;;;;;;6.53;4.00;;;13.10;99.90;;;;;;5015133;28;20418;-57
2021/05/13 03:37:08;;;;;;;4.13;3.70;;;13.10;99.90;;;;;;5014813;28;20259;-60
2021/05/13 03:39:34;;;;;;;3.60;3.30;;;13.10;99.90;;;;;;5014737;28;20214;-60
2021/05/13 03:41:59;;;;;;;4.00;3.70;;;13.10;99.90;;;;;;5014486;28;20191;-60
2021/05/13 03:44:25;;;;;;;3.83;3.00;;;13.10;99.90;;;;;;5014611;28;20733;-60
2021/05/13 03:46:50;;;;;;;4.73;4.33;;;13.10;99.90;;;;;;5014646;28;20582;-60
2021/05/13 03:49:16;;;;;;;5.27;3.87;;;13.00;99.90;;;;;;5014549;28;20655;-60
2021/05/13 03:51:42;;;;;;;5.13;3.80;;;13.00;99.90;;;;;;5014439;28;20195;-60
2021/05/13 03:54:07;;;;;;;4.60;3.40;;;13.00;99.90;;;;;;5014808;28;20267;-60
2021/05/13 03:56:33;;;;;;;6.77;3.63;;;13.00;99.90;;;;;;5014582;28;20572;-60
2021/05/13 03:59:04;;;;;;;3.83;3.47;;;13.00;99.90;;;;;;5014728;28;20196;-60
2021/05/13 04:04:11;;;;;;;4.30;4.00;;;13.00;99.90;;;;;;5014937;28;20399;-59
2021/05/13 04:06:36;;;;;;;6.70;3.80;;;13.00;99.90;;;;;;5014242;28;20399;-59
2021/05/13 04:09:08;;;;;;;5.73;4.20;;;12.90;99.90;;;;;;5014470;28;20472;-58
2021/05/13 04:11:33;;;;;;;6.77;3.50;;;12.90;99.90;;;;;;5013894;28;20656;-60
2021/05/13 04:13:59;;;;;;;5.77;4.23;;;12.80;99.90;;;;;;5014179;28;20423;-60
2021/05/13 04:16:29;;;;;;;7.13;4.23;;;12.60;99.90;;;;;;5014369;28;20180;-60
2021/05/13 04:18:54;;;;;;;5.50;3.77;;;12.60;99.90;;;;;;5013835;28;20164;-59
2021/05/13 04:21:20;;;;;;;4.00;3.60;;;12.50;99.90;;;;;;5014205;28;20435;-60
2021/05/13 04:23:46;;;;;;;5.43;3.73;;;12.50;99.90;;;;;;5014250;28;20172;-60
2021/05/13 04:26:11;;;;;;;5.10;4.03;;;12.40;99.90;;;;;;5014033;28;20164;-60
2021/05/13 04:28:37;;;;;;;3.97;3.47;;;12.50;99.90;;;;;;5013933;28;20177;-60
2021/05/13 04:31:03;;;;;;;7.23;4.13;;;12.50;99.90;;;;;;5013996;28;20238;-58
2021/05/13 04:33:31;;;;;;;5.60;3.87;;;12.40;99.90;;;;;;5013533;28;20191;-59
2021/05/13 04:35:57;;;;;;;10.37;4.83;;;12.50;99.90;;;;;;5013834;28;20175;-60
2021/05/13 04:38:22;;;;;;;6.47;3.47;;;12.50;99.90;;;;;;5027612;28;20437;-60
2021/05/13 04:40:50;;;;;;;5.03;3.83;;;12.60;99.90;;;;;;5033163;28;20430;-59
2021/05/13 04:43:16;;;;;;;4.67;3.73;;;12.70;99.90;;;;;;5033690;28;20182;-60
2021/05/13 04:45:41;;;;;;;7.87;4.47;;;12.80;99.90;;;;;;5033562;28;20395;-60
2021/05/13 04:48:12;;;;;;;6.37;4.80;;;12.90;99.90;;;;;;5020089;28;20263;-59
2021/05/13 04:50:37;;;;;;;6.03;5.43;;;13.00;99.90;;;;;;5006638;28;20214;-60
2021/05/13 04:53:08;;;;;;;6.90;4.70;;;13.10;99.90;;;;;;5013468;28;20869;-60
2021/05/13 04:55:38;;;;;;;7.07;6.40;;;13.20;99.90;;;;;;5013145;28;20617;-60
2021/05/13 04:58:04;;;;;;;7.50;6.40;;;13.20;99.90;;;;;;5013811;28;20466;-60
2021/05/13 05:00:30;;;;;;;7.10;6.40;;;13.20;99.90;;;;;;5013580;28;20423;-60
2021/05/13 05:02:56;;;;;;;10.37;6.30;;;13.20;99.90;;;;;;5013405;28;20395;-60
2021/05/13 05:05:22;;;;;;;4.73;4.33;;;13.30;99.90;;;;;;5013630;28;20210;-60
2021/05/13 05:07:48;;;;;;;8.43;4.80;;;13.20;99.90;;;;;;5013352;28;20417;-60
2021/05/13 05:10:14;;;;;;;7.70;4.80;;;13.00;99.90;;;;;;5013589;28;20406;-60
2021/05/13 05:12:40;;;;;;;6.70;4.57;;;13.00;99.90;;;;;;5013248;28;20199;-60
2021/05/13 05:15:06;;;;;;;4.43;4.03;;;13.00;99.90;;;;;;5013457;28;20254;-57
2021/05/13 05:17:32;;;;;;;5.60;4.50;;;13.00;99.90;;;;;;5013151;28;20486;-60
2021/05/13 05:19:57;;;;;;;6.23;4.67;;;13.10;99.90;;;;;;5013544;28;20782;-60
2021/05/13 05:22:23;;;;;;;4.57;4.17;;;13.20;99.90;;;;;;5013151;28;20505;-60
2021/05/13 05:24:49;;;;;;;5.10;4.60;;;13.30;99.90;;;;;;5013235;28;20210;-59
2021/05/13 05:27:14;;;;;;;4.70;4.20;;;13.40;99.90;;;;;;5013028;28;20169;-60
2021/05/13 05:29:40;;;;;;;5.00;4.47;;;13.50;99.90;;;;;;5013678;28;20164;-60
2021/05/13 05:32:06;;;;;;;4.73;4.33;;;13.40;99.90;;;;;;5012680;28;20246;-59
2021/05/13 05:34:31;;;;;;;5.73;5.13;;;13.10;99.90;;;;;;5013164;28;20164;-59
2021/05/13 05:36:57;;;;;;;5.67;5.00;;;13.20;99.90;;;;;;5013180;28;20225;-60
2021/05/13 05:39:23;;;;;;;7.33;6.63;;;13.30;99.90;;;;;;5013393;28;20178;-60
2021/05/13 05:41:51;;;;;;;7.00;6.40;;;13.30;99.90;;;;;;5012859;28;20516;-60
2021/05/13 05:44:17;;;;;;;5.87;4.50;;;13.30;99.90;;;;;;5013005;28;20156;-58
2021/05/13 05:46:42;;;;;;;6.83;5.10;;;13.50;99.90;;;;;;5013305;28;20489;-60
2021/05/13 05:49:08;;;;;;;4.63;3.70;;;13.60;99.90;;;;;;5012659;28;20169;-60
2021/05/13 05:51:34;;;;;;;6.00;4.40;;;13.70;99.90;;;;;;5013017;28;20188;-60
2021/05/13 05:53:59;;;;;;;5.57;4.30;;;13.90;99.90;;;;;;5012882;28;20203;-58
2021/05/13 05:56:25;;;;;;;7.90;6.47;;;13.90;99.90;;;;;;5012710;28;20197;-58
2021/05/13 05:58:50;;;;;;;6.80;4.80;;;13.90;99.90;;;;;;5012875;28;20694;-60
2021/05/13 06:01:16;;;;;;;6.20;5.20;;;14.00;99.90;;;;;;5012648;28;20204;-59
2021/05/13 06:03:42;;;;;;;6.57;4.77;;;14.00;99.90;;;;;;5012649;28;20160;-60
2021/05/13 06:06:07;;;;;;;7.73;5.57;;;13.80;99.90;;;;;;5013081;28;20178;-60
2021/05/13 06:08:33;;;;;;;5.13;4.50;;;13.80;99.90;;;;;;5015550;28;20172;-60
2021/05/13 06:10:58;;;;;;;6.23;4.73;;;13.90;99.90;;;;;;5016224;28;20180;-60
2021/05/13 06:13:24;;;;;;;7.00;5.80;;;14.10;99.90;;;;;;5016467;28;20203;-60
2021/05/13 06:15:49;;;;;;;8.60;4.77;;;14.00;99.90;;;;;;5016459;28;20231;-60
2021/05/13 06:18:15;;;;;;;7.27;4.10;;;14.30;99.90;;;;;;5016107;28;20269;-60
2021/05/13 06:20:41;;;;;;;4.57;4.17;;;14.40;99.90;;;;;;5016216;28;20191;-60
2021/05/13 06:23:08;;;;;;;5.80;4.70;;;14.20;99.90;;;;;;5016108;28;20174;-59
2021/05/13 06:25:35;;;;;;;7.63;4.40;;;14.40;99.90;;;;;;5016082;28;20177;-60
2021/05/13 06:28:01;;;;;;;6.83;4.63;;;14.50;99.90;;;;;;5016116;28;20413;-61
2021/05/13 06:30:27;;;;;;;8.30;4.40;;;14.60;99.90;;;;;;5016499;28;20939;-61
2021/05/13 06:32:52;;;;;;;5.70;3.70;;;14.70;99.90;;;;;;5015945;28;20198;-61
2021/05/13 06:35:20;;;;;;;5.57;3.90;;;14.80;99.90;;;;;;5015994;28;20609;-61
2021/05/13 06:37:46;;;;;;;5.03;4.17;;;15.00;99.90;;;;;;5016689;28;20166;-60
2021/05/13 06:40:13;;;;;;;4.67;4.23;;;15.00;99.90;;;;;;5035596;28;20913;-60
2021/05/13 06:42:40;;;;;;;3.80;3.40;;;15.10;99.90;;;;;;5035303;28;20990;-60
2021/05/13 06:45:07;;;;;;;4.93;3.83;;;15.00;99.90;;;;;;5035884;28;20507;-60
2021/05/13 06:47:33;;;;;;;4.13;3.70;;;14.90;99.90;;;;;;5035673;28;20408;-60
2021/05/13 06:49:59;;;;;;;3.80;3.17;;;15.00;99.90;;;;;;5035462;28;20503;-60
2021/05/13 06:52:24;;;;;;;3.13;2.90;;;15.10;99.90;;;;;;5035568;28;20536;-60
2021/05/13 06:54:50;;;;;;;3.70;3.33;;;15.20;99.90;;;;;;5035552;28;20171;-60
2021/05/13 06:57:16;;;;;;;5.03;3.10;;;15.40;99.90;;;;;;5035423;28;20599;-60
2021/05/13 06:59:42;;;;;;;3.13;2.67;;;15.70;99.90;;;;;;5035276;28;20224;-61
2021/05/13 07:02:10;;;;;;;3.63;3.33;;;15.90;99.90;;;;;;5052093;22;21036;-61
2021/05/13 07:04:35;;;;;;;2.60;2.40;;;16.00;99.90;;;;;;5035878;28;20481;-62
2021/05/13 07:07:01;;;;;;;3.33;3.03;;;15.80;99.90;;;;;;5035731;28;20425;-62
2021/05/13 07:09:27;;;;;;;5.77;3.17;;;15.90;99.90;;;;;;5036102;28;20676;-61
2021/05/13 07:11:52;;;;;;;2.60;2.07;;;16.10;99.90;;;;;;5035186;28;20325;-61
2021/05/13 07:14:18;;;;;;;3.80;2.30;;;15.90;99.90;;;;;;5035158;28;20169;-61
2021/05/13 07:16:44;;;;;;;1.67;1.57;;;15.70;99.90;;;;;;5035244;28;20669;-61
2021/05/13 07:19:09;;;;;;;2.80;2.20;;;15.90;99.90;;;;;;5034352;28;20610;-60
2021/05/13 07:21:35;;;;;;;2.50;1.97;;;16.00;99.90;;;;;;5035421;28;20197;-61
2021/05/13 07:24:02;;;;;;;2.40;2.10;;;16.00;99.90;;;;;;5035381;28;20175;-61
2021/05/13 07:26:27;;;;;;;2.33;1.93;;;15.90;99.90;;;;;;5035133;28;20175;-61
2021/05/13 07:28:53;;;;;;;4.90;2.60;;;16.10;99.90;;;;;;5035253;28;20411;-62
2021/05/13 07:31:19;;;;;;;5.43;3.00;;;16.30;99.90;;;;;;5034735;28;20192;-61
2021/05/13 07:33:45;;;;;;;5.10;2.83;;;16.30;99.90;;;;;;5034725;28;20195;-61
2021/05/13 07:36:11;;;;;;;7.60;3.43;;;16.40;99.90;;;;;;5035236;28;20413;-60
2021/05/13 07:38:37;;;;;;;3.83;2.60;;;16.50;99.90;;;;;;5034829;28;20169;-61
2021/05/13 07:41:05;;;;;;;2.80;2.10;;;16.40;99.90;;;;;;5029390;28;20517;-61
2021/05/13 07:43:31;;;;;;;3.30;2.30;;;16.30;99.90;;;;;;5021557;28;20783;-61
2021/05/13 07:45:57;;;;;;;2.67;2.47;;;16.20;99.90;;;;;;5014948;28;20464;-60
2021/05/13 07:48:22;;;;;;;2.73;2.47;;;16.40;99.90;;;;;;5014605;28;20177;-61
2021/05/13 07:50:48;;;;;;;3.83;2.47;;;16.40;99.90;;;;;;5015097;28;20177;-61
2021/05/13 07:53:14;;;;;;;2.93;2.03;;;16.40;99.90;;;;;;5014462;28;20758;-61
2021/05/13 07:55:40;;;;;;;2.90;2.33;;;16.30;99.90;;;;;;5014747;28;20448;-60
2021/05/13 07:58:06;;;;;;;4.50;2.70;;;16.50;99.90;;;;;;5014471;28;20636;-61
2021/05/13 08:00:32;;;;;;;4.77;2.90;;;16.50;99.90;;;;;;5019501;28;20406;-61
2021/05/13 08:06:19;;;;;;;5.40;2.77;;;16.80;99.90;;;;;;5026872;28;20194;-62
2021/05/13 08:08:45;;;;;;;2.80;2.60;;;16.90;99.90;;;;;;5024929;28;20416;-61
2021/05/13 08:11:10;;;;;;;4.20;3.10;;;16.70;99.90;;;;;;5014187;28;20206;-59
2021/05/13 08:13:36;;;;;;;2.83;2.50;;;16.90;99.90;;;;;;5014653;28;20682;-60
2021/05/13 08:16:02;;;;;;;4.30;2.20;;;17.30;99.90;;;;;;5014734;28;20613;-60
2021/05/13 08:18:28;;;;;;;3.10;2.30;;;17.40;99.90;;;;;;5013936;28;20536;-60
2021/05/13 08:20:54;;;;;;;4.20;2.50;;;17.60;99.90;;;;;;5014445;28;20406;-61
2021/05/13 08:23:19;;;;;;;3.43;2.43;;;17.90;99.90;;;;;;5014748;28;20203;-62
2021/05/13 08:25:45;;;;;;;5.93;2.40;;;18.10;99.90;;;;;;5014483;28;20410;-61
2021/05/13 08:28:11;;;;;;;7.53;2.80;;;18.40;99.90;;;;;;5013958;28;20168;-61
2021/05/13 08:30:36;;;;;;;3.43;2.50;;;18.30;99.90;;;;;;5018994;28;20210;-56
2021/05/13 08:33:02;;;;;;;3.60;2.53;;;18.30;99.90;;;;;;5049591;28;20198;-59
2021/05/13 08:35:28;;;;;;;4.17;2.60;;;18.20;99.90;;;;;;5053519;28;20162;-60
2021/05/13 08:37:53;;;;;;;3.47;2.53;;;18.00;99.90;;;;;;5053571;28;20207;-60
2021/05/13 08:40:20;;;;;;;2.83;2.60;;;17.80;99.90;;;;;;5053593;28;20173;-59
2021/05/13 08:42:45;;;;;;;6.77;2.60;;;17.90;99.90;;;;;;5053122;28;20182;-60
2021/05/13 08:45:11;;;;;;;4.43;2.80;;;18.30;99.90;;;;;;5053333;28;20975;-57
2021/05/13 08:47:41;;;;;;;2.70;2.50;;;18.30;99.90;;;;;;5053302;28;20167;-61
2021/05/13 08:50:07;;;;;;;5.77;2.57;;;18.30;99.90;;;;;;5053430;28;20171;-59
2021/05/13 08:52:33;;;;;;;2.40;2.20;;;18.30;99.90;;;;;;5053336;28;20483;-61
2021/05/13 08:55:00;;;;;;;2.90;2.60;;;17.80;99.90;;;;;;5053414;28;20397;-59
2021/05/13 08:57:27;;;;;;;2.13;1.93;;;17.60;99.90;;;;;;5053049;28;20657;-60
2021/05/13 08:59:56;;;;;;;3.03;2.10;;;17.40;99.90;;;;;;5053223;28;20409;-61
2021/05/13 09:02:23;;;;;;;2.87;2.67;;;17.50;99.90;;;;;;5013386;28;20545;-59
2021/05/13 09:04:53;;;;;;;3.97;2.60;;;17.40;99.90;;;;;;5013421;28;20446;-60
2021/05/13 09:07:24;;;;;;;4.77;2.50;;;17.40;99.90;;;;;;5013475;28;20461;-60
2021/05/13 09:09:58;;;;;;;3.63;2.30;;;17.30;99.90;;;;;;5014121;28;20517;-60
2021/05/13 09:12:27;;;;;;;3.73;2.53;;;17.30;99.90;;;;;;5013274;28;20467;-59
2021/05/13 09:14:57;;;;;;;4.07;2.40;;;17.50;99.90;;;;;;5013560;28;20403;-59
2021/05/13 09:17:26;;;;;;;2.43;2.23;;;18.00;99.90;;;;;;5013444;28;20399;-59
2021/05/13 09:19:52;;;;;;;2.83;2.20;;;18.40;99.30;;;;;;5013975;28;20765;-58
2021/05/13 09:22:24;;;;;;;2.43;2.23;;;18.80;98.70;;;;;;5013793;28;20422;-60
2021/05/13 09:24:59;;;;;;;5.10;2.43;;;19.30;98.40;;;;;;5013176;28;20939;-60
2021/05/13 09:27:33;;;;;;;5.30;3.10;;;19.20;97.90;;;;;;5013257;28;20875;-61
2021/05/13 09:30:15;;;;;;;3.27;2.97;;;18.80;99.30;;;;;;5013926;28;20399;-61
2021/05/13 09:32:43;;;;;;;4.30;3.10;;;18.90;99.10;;;;;;5032903;28;20519;-60
2021/05/13 09:35:16;;;;;;;3.53;2.37;;;18.80;99.40;;;;;;5033069;28;20444;-58
2021/05/13 09:37:47;;;;;;;4.80;2.53;;;18.80;99.30;;;;;;5033152;28;20402;-57
2021/05/13 09:40:14;;;;;;;2.73;2.37;;;18.70;98.30;;;;;;5033517;28;20423;-59
2021/05/13 09:42:41;;;;;;;4.10;2.50;;;18.50;98.30;;;;;;5035743;28;20421;-60
2021/05/13 09:45:09;;;;;;;2.90;2.47;;;18.80;98.30;;;;;;5036750;28;20410;-60
2021/05/13 09:47:37;;;;;;;3.73;2.60;;;19.10;98.10;;;;;;5036791;28;20958;-59
2021/05/13 09:50:11;;;;;;;4.73;2.07;;;18.90;98.30;;;;;;5036881;28;20902;-56
2021/05/13 09:52:41;;;;;;;3.40;2.43;;;19.30;97.40;;;;;;5019542;28;20900;-59
2021/05/13 09:55:35;;;;;;;2.43;2.23;;;19.10;97.00;;;;;;5037346;28;20386;-58
2021/05/13 09:58:06;;;;;;;2.30;1.90;;;18.60;97.60;;;;;;5036760;28;20533;-58
2021/05/13 10:00:48;;;;;;;3.50;2.60;;;18.30;98.20;;;;;;5036942;28;20493;-58
2021/05/13 10:03:18;;;;;;;3.10;2.03;;;18.20;98.10;;;;;;5036673;28;20456;-60
2021/05/13 10:05:47;;;;;;;3.83;2.30;;;18.30;98.50;;;;;;5019268;28;20528;-60
2021/05/13 10:08:14;;;;;;;4.13;2.23;;;18.60;98.70;;;;;;5036256;28;20412;-60
2021/05/13 10:10:41;;;;;;;3.50;2.30;;;18.70;97.20;;;;;;5036037;28;20402;-60
2021/05/13 10:13:08;;;;;;;3.63;2.20;;;18.60;96.90;;;;;;5035884;28;20477;-60
2021/05/13 10:15:41;;;;;;;3.13;2.70;;;18.90;96.80;;;;;;5036515;28;20406;-60
2021/05/13 10:18:28;;;;;;;4.20;2.17;;;19.40;96.10;;;;;;5036267;28;20381;-60
2021/05/13 10:20:58;;;;;;;3.70;2.20;;;19.60;96.00;;;;;;5021850;28;20509;-60
2021/05/13 10:23:24;;;;;;;3.20;2.40;;;19.50;96.40;;;;;;5036174;28;20485;-59
2021/05/13 10:25:50;;;;;;;2.00;1.90;;;19.40;95.60;;;;;;5036194;28;20457;-60
2021/05/13 10:28:16;;;;;;;2.53;2.33;;;19.50;95.80;;;;;;5035935;28;20925;-60
2021/05/13 10:30:42;;;;;;;5.27;2.30;;;19.60;95.50;;;;;;5036122;28;20418;-60
2021/05/13 10:33:12;;;;;;;3.70;1.93;;;19.70;95.10;;;;;;5035666;28;20451;-59
2021/05/13 10:35:39;;;;;;;2.07;1.23;;;19.60;95.50;;;;;;5049574;28;20166;-60
2021/05/13 10:38:13;;;;;;;3.43;1.83;;;19.30;94.20;;;;;;5056053;28;20405;-59
2021/05/13 10:43:10;;;;;;;2.33;1.60;;;19.20;94.00;;;;;;5055972;28;20960;-63
2021/05/13 10:45:43;;;;;;;3.00;1.53;;;19.30;94.10;;;;;;5055657;28;20401;-61
2021/05/13 10:48:24;;;;;;;2.70;1.70;;;19.60;95.30;;;;;;5037396;28;20420;-61
2021/05/13 10:51:04;;;;;;;3.37;1.80;;;19.70;95.20;;;;;;5055678;28;20464;-61
2021/05/13 10:53:36;;;;;;;4.20;1.77;;;19.50;94.90;;;;;;5054897;28;20494;-60
2021/05/13 10:56:23;;;;;;;3.87;1.70;;;19.50;94.50;;;;;;5055565;28;20519;-58
2021/05/13 10:59:00;;;;;;;3.40;1.60;;;19.10;95.50;;;;;;5055114;28;20410;-61
2021/05/13 11:01:29;;;;;;;2.90;1.93;;;18.90;96.30;;;;;;5030244;28;20930;-60
2021/05/13 11:04:22;;;;;;;3.07;1.77;;;18.80;95.50;;;;;;5035304;28;20394;-61
2021/05/13 11:06:49;;;;;;;6.70;1.90;;;18.70;96.00;;;;;;5035637;28;20768;-61
2021/05/13 11:09:46;;;;;;;4.20;2.03;;;18.60;97.20;;;;;;5035350;28;20394;-61
2021/05/13 11:12:16;;;;;;;4.30;2.17;;;18.10;97.30;;;;;;5035033;28;20460;-58
2021/05/13 11:20:29;;;;;;;2.60;1.40;;;19.20;97.60;;;;;;5035106;28;20366;-61
2021/05/13 11:23:07;;;;;;;1.93;1.33;;;20.20;96.60;;;;;;5035068;28;20980;-61
2021/05/13 11:25:44;;;;;;;3.77;1.37;;;21.00;95.60;;;;;;5035289;28;20402;-58
2021/05/13 11:28:26;;;;;;;3.27;1.60;;;21.20;94.60;;;;;;5034733;28;20812;-61
2021/05/13 11:31:20;;;;;;;2.23;1.87;;;21.00;94.50;;;;;;5035034;28;20406;-54
2021/05/13 11:33:54;;;;;;;2.37;1.43;;;21.10;93.20;;;;;;5034719;28;20437;-60
2021/05/13 11:36:23;;;;;;;2.33;1.60;;;21.10;93.70;;;;;;5016964;28;20466;-61
2021/05/13 11:38:53;;;;;;;1.87;1.60;;;20.10;94.10;;;;;;5034791;28;20413;-61
2021/05/13 11:41:19;;;;;;;2.37;1.70;;;19.50;95.20;;;;;;5034467;28;20426;-60
2021/05/13 11:43:46;;;;;;;1.73;1.17;;;19.40;93.60;;;;;;5034375;28;20410;-60
2021/05/13 11:46:17;;;;;;;3.03;1.33;;;19.10;94.00;;;;;;5035301;28;20652;-56
2021/05/13 11:48:44;;;;;;;2.50;1.20;;;19.10;94.00;;;;;;5034509;28;20478;-60
2021/05/13 11:51:30;;;;;;;1.30;1.00;;;19.00;94.30;;;;;;5034505;28;20434;-60
2021/05/13 11:54:01;;;;;;;3.57;1.70;;;18.70;94.10;;;;;;5034767;28;20434;-60
2021/05/13 11:56:29;;;;;;;4.07;1.50;;;18.50;94.90;;;;;;5016487;28;20480;-61
2021/05/13 11:59:00;;;;;;;1.30;1.07;;;18.60;95.30;;;;;;5034199;28;20398;-59
2021/05/13 12:01:34;;;;;;;1.90;1.30;;;18.90;94.90;;;;;;5016440;28;20457;-62
2021/05/13 12:04:09;;;;;;;3.30;1.37;;;18.60;95.00;;;;;;5034518;28;20484;-59
2021/05/13 12:06:49;;;;;;;4.70;1.03;;;18.70;95.90;;;;;;5034275;28;20535;-59
2021/05/13 12:09:17;;;;;;;1.53;1.00;;;18.50;93.50;;;;;;5034803;28;20441;-60
2021/05/13 12:11:43;;;;;;;2.60;1.00;;;18.50;93.30;;;;;;5034311;28;20487;-60
2021/05/13 12:14:13;;;;;;;1.73;1.17;;;19.00;94.40;;;;;;5033876;28;20544;-61
2021/05/13 12:16:42;;;;;;;1.90;1.23;;;19.10;94.00;;;;;;5034107;28;20163;-61
2021/05/13 12:19:10;;;;;;;1.33;0.80;;;19.30;95.10;;;;;;5034083;28;20402;-61
2021/05/13 12:21:37;;;;;;;1.77;1.00;;;19.50;93.80;;;;;;5034525;28;20922;-62
2021/05/13 12:24:05;;;;;;;2.00;1.13;;;19.60;93.20;;;;;;5033897;28;20405;-60
2021/05/13 12:26:32;;;;;;;1.50;1.10;;;19.90;93.70;;;;;;5033988;28;20438;-61
2021/05/13 12:28:59;;;;;;;1.20;0.87;;;20.00;93.00;;;;;;5033707;28;20402;-62
2021/05/13 12:31:36;;;;;;;1.20;1.10;;;19.50;92.10;;;;;;5033705;28;20437;-62
2021/05/13 12:34:05;;;;;;;2.13;1.10;;;19.50;92.30;;;;;;5046757;28;20864;-58
2021/05/13 12:36:34;;;;;;;1.20;0.93;;;19.50;91.60;;;;;;5053727;28;20744;-62
2021/05/13 12:39:00;;;;;;;1.30;1.20;;;19.60;92.50;;;;;;5053721;28;20396;-62
2021/05/13 12:41:27;;;;;;;2.30;1.10;;;20.50;91.00;;;;;;5053662;28;20421;-62
2021/05/13 12:44:06;;;;;;;2.20;1.27;;;21.10;86.80;;;;;;5053523;28;20435;-62
2021/05/13 12:46:31;;;;;;;1.93;1.20;;;21.40;85.70;;;;;;5053534;28;20844;-62
2021/05/13 12:48:57;;;;;;;1.67;1.00;;;22.10;86.40;;;;;;5053281;28;20446;-61
2021/05/13 12:51:25;;;;;;;1.93;0.90;;;22.00;81.40;;;;;;5052919;28;20194;-60
2021/05/13 12:53:56;;;;;;;1.83;0.80;;;23.80;81.50;;;;;;5053259;28;20194;-60
2021/05/13 12:56:30;;;;;;;1.40;1.20;;;23.90;74.30;;;;;;5053421;28;20405;-63
2021/05/13 12:59:08;;;;;;;1.53;0.83;;;24.60;74.70;;;;;;5053194;28;20400;-60
2021/05/13 13:01:55;;;;;;;1.57;0.90;;;24.90;71.00;;;;;;5064268;22;20461;-60
2021/05/13 13:04:21;;;;;;;7.93;1.37;;;23.60;74.30;;;;;;5011705;28;20423;-60
2021/05/13 13:06:47;;;;;;;0.87;0.70;;;23.00;73.00;;;;;;5013292;28;20925;-61
2021/05/13 13:09:29;;;;;;;1.40;0.90;;;23.30;73.40;;;;;;5013483;28;20175;-61
2021/05/13 13:12:21;;;;;;;1.40;1.03;;;22.20;74.50;;;;;;4996041;28;20449;-61
2021/05/13 13:14:48;;;;;;;1.20;0.70;;;21.80;78.10;;;;;;5009900;28;20446;-61